Time;durP1;ratioP1;P1;durP2;ratioP2;P2;SDS_P1;SDS_P2;PMS_P1;PMS_P2;Temp;Humidity;BMP_temperature;BMP_pressure;BME280_temperature;BME280_humidity;BME280_pressure;Samples;Min_cycle;Max_cycle;Signal;HPM_P1;HPM_P2
2021/03/23 00:00:49;;;;;;;2.30;2.10;;;9.80;99.90;;;;;;5087335;28;20278;-80
2021/03/23 00:03:17;;;;;;;2.53;1.90;;;9.80;99.90;;;;;;5088647;28;20220;-80
2021/03/23 00:05:44;;;;;;;1.95;1.42;;;9.70;99.90;;;;;;5079906;28;20217;-81
2021/03/23 00:08:23;;;;;;;1.40;1.27;;;9.80;99.90;;;;;;5084212;28;20197;-80
2021/03/23 00:10:50;;;;;;;1.60;1.50;;;9.70;99.90;;;;;;5086408;28;20189;-80
2021/03/23 00:26:45;;;;;;;1.92;1.00;;;9.80;99.90;;;;;;5081119;28;20212;-77
2021/03/23 00:29:12;;;;;;;1.90;1.35;;;9.80;99.90;;;;;;5080230;28;20218;-79
2021/03/23 00:31:39;;;;;;;1.80;1.38;;;9.80;99.90;;;;;;5080977;28;20305;-77
2021/03/23 00:34:08;;;;;;;1.98;1.30;;;9.70;99.90;;;;;;5088336;28;20619;-80
2021/03/23 00:36:37;;;;;;;3.00;1.40;;;9.70;99.90;;;;;;5076123;28;20214;-80
2021/03/23 00:42:27;;;;;;;1.23;1.00;;;9.70;99.90;;;;;;5069383;28;20396;-79
2021/03/23 00:44:54;;;;;;;2.47;1.50;;;9.70;99.90;;;;;;5086152;28;20270;-80
2021/03/23 00:47:21;;;;;;;2.70;1.20;;;9.70;99.90;;;;;;5076423;28;20216;-79
2021/03/23 00:49:47;;;;;;;2.15;1.50;;;9.70;99.90;;;;;;5075515;28;20214;-79
2021/03/23 00:52:13;;;;;;;1.60;1.50;;;9.70;99.90;;;;;;5073863;28;20197;-79
2021/03/23 00:54:39;;;;;;;2.13;1.00;;;9.70;99.90;;;;;;5078939;28;20660;-79
2021/03/23 00:57:06;;;;;;;3.75;1.20;;;9.70;99.90;;;;;;5079240;28;20229;-79
2021/03/23 00:59:33;;;;;;;1.42;1.25;;;9.70;99.90;;;;;;5078975;28;20205;-79
2021/03/23 01:01:59;;;;;;;1.25;1.10;;;9.70;99.90;;;;;;5071713;28;20214;-79
2021/03/23 01:04:26;;;;;;;3.67;1.30;;;9.70;99.90;;;;;;5075870;28;20218;-79
2021/03/23 01:06:52;;;;;;;2.72;1.15;;;9.70;99.90;;;;;;5071295;28;20588;-78
2021/03/23 01:09:18;;;;;;;1.23;1.13;;;9.70;99.90;;;;;;5087576;28;20198;-80
2021/03/23 01:11:44;;;;;;;1.85;1.70;;;9.70;99.90;;;;;;5072687;28;20248;-79
2021/03/23 01:14:11;;;;;;;1.77;1.38;;;9.70;99.90;;;;;;5073111;28;20214;-79
2021/03/23 01:16:38;;;;;;;1.75;1.42;;;9.70;99.90;;;;;;5073598;28;20225;-79
2021/03/23 01:19:04;;;;;;;1.52;1.00;;;9.70;99.90;;;;;;5087132;28;20224;-79
2021/03/23 01:21:30;;;;;;;1.00;0.90;;;9.60;99.90;;;;;;5074081;28;20210;-79
2021/03/23 01:23:56;;;;;;;2.00;1.20;;;9.70;99.90;;;;;;5084381;28;20634;-79
2021/03/23 01:26:22;;;;;;;1.83;1.15;;;9.70;99.90;;;;;;5081597;28;20213;-80
2021/03/23 01:28:49;;;;;;;1.17;0.95;;;9.70;99.90;;;;;;5087852;28;20278;-80
2021/03/23 01:31:15;;;;;;;1.30;0.90;;;9.70;99.90;;;;;;5086875;28;20654;-80
2021/03/23 01:33:42;;;;;;;1.55;1.15;;;9.70;99.90;;;;;;5077685;28;20216;-80
2021/03/23 01:36:09;;;;;;;1.85;1.23;;;9.70;99.90;;;;;;5080053;28;20214;-79
2021/03/23 01:38:35;;;;;;;2.08;1.52;;;9.70;99.90;;;;;;5086164;28;20201;-79
2021/03/23 01:41:01;;;;;;;1.60;1.27;;;9.60;99.90;;;;;;5089277;28;20553;-80
2021/03/23 01:43:33;;;;;;;1.20;0.90;;;9.60;99.90;;;;;;5082012;28;20696;-78
2021/03/23 01:46:00;;;;;;;1.38;1.10;;;9.70;99.90;;;;;;5093215;28;20218;-79
2021/03/23 01:48:29;;;;;;;1.70;1.30;;;9.60;99.90;;;;;;5084264;28;20202;-79
2021/03/23 01:50:59;;;;;;;1.98;1.15;;;9.60;99.90;;;;;;5077184;28;20198;-79
2021/03/23 01:53:29;;;;;;;1.10;1.00;;;9.60;99.90;;;;;;5076804;28;20209;-78
2021/03/23 01:55:57;;;;;;;1.58;1.20;;;9.60;99.90;;;;;;5081858;28;20186;-79
2021/03/23 01:58:24;;;;;;;1.83;1.13;;;9.60;99.90;;;;;;5087873;28;20194;-79
2021/03/23 02:00:50;;;;;;;2.65;1.15;;;9.60;99.90;;;;;;5077224;28;20216;-78
2021/03/23 02:03:21;;;;;;;1.70;1.25;;;9.70;99.90;;;;;;5080943;28;20209;-78
2021/03/23 02:05:54;;;;;;;2.17;1.40;;;9.70;99.90;;;;;;5077076;28;20190;-79
2021/03/23 02:08:22;;;;;;;1.77;1.25;;;9.60;99.90;;;;;;5077795;28;20190;-79
2021/03/23 02:10:49;;;;;;;1.50;1.38;;;9.60;99.90;;;;;;5080513;28;22205;-79
2021/03/23 02:13:16;;;;;;;3.20;1.50;;;9.60;99.90;;;;;;5071391;28;20283;-79
2021/03/23 02:15:42;;;;;;;1.70;1.17;;;9.60;99.90;;;;;;5087243;28;20213;-79
2021/03/23 02:18:16;;;;;;;1.23;0.98;;;9.60;99.90;;;;;;5082026;28;20573;-79
2021/03/23 02:21:05;;;;;;;1.20;1.08;;;9.60;99.90;;;;;;5080415;28;20222;-79
2021/03/23 02:23:33;;;;;;;1.30;1.17;;;9.60;99.90;;;;;;5073685;28;20226;-79
2021/03/23 02:26:00;;;;;;;2.70;1.55;;;9.60;99.90;;;;;;5080791;28;20217;-80
2021/03/23 02:28:26;;;;;;;1.25;1.15;;;9.60;99.90;;;;;;5080416;28;20225;-80
2021/03/23 02:30:53;;;;;;;1.17;1.08;;;9.60;99.90;;;;;;5081338;28;20220;-80
2021/03/23 02:33:20;;;;;;;2.42;1.02;;;9.60;99.90;;;;;;5074190;28;20194;-79
2021/03/23 02:35:46;;;;;;;1.30;1.00;;;9.50;99.90;;;;;;5079428;28;20210;-79
2021/03/23 02:38:14;;;;;;;1.25;1.15;;;9.50;99.90;;;;;;5072946;28;20225;-79
2021/03/23 02:40:41;;;;;;;1.20;1.10;;;9.60;99.90;;;;;;5073515;28;20198;-80
2021/03/23 02:43:07;;;;;;;1.50;1.10;;;9.50;99.90;;;;;;5072043;28;20951;-80
2021/03/23 02:45:35;;;;;;;2.33;1.23;;;9.50;99.90;;;;;;5072082;28;20272;-79
2021/03/23 02:48:01;;;;;;;1.33;1.00;;;9.50;99.90;;;;;;5078699;28;20193;-80
2021/03/23 02:50:28;;;;;;;2.05;1.42;;;9.50;99.90;;;;;;5079134;28;20214;-80
2021/03/23 02:52:54;;;;;;;1.23;1.10;;;9.50;99.90;;;;;;5076933;28;20266;-80
2021/03/23 02:55:21;;;;;;;1.27;1.10;;;9.50;99.90;;;;;;5078735;28;20190;-80
2021/03/23 02:57:48;;;;;;;1.45;1.30;;;9.50;99.90;;;;;;5091703;28;20217;-80
2021/03/23 03:00:17;;;;;;;2.45;1.38;;;9.50;99.90;;;;;;5084097;28;20216;-80
2021/03/23 03:02:43;;;;;;;1.48;1.00;;;9.50;99.90;;;;;;5084213;28;20209;-79
2021/03/23 03:05:11;;;;;;;1.60;1.35;;;9.50;99.90;;;;;;5090053;28;20193;-80
2021/03/23 03:07:37;;;;;;;1.10;1.00;;;9.60;99.90;;;;;;5079114;28;20221;-80
2021/03/23 03:10:05;;;;;;;1.55;1.40;;;9.50;99.90;;;;;;5072558;28;20260;-80
2021/03/23 03:12:32;;;;;;;1.20;1.05;;;9.50;99.90;;;;;;5081225;28;20608;-79
2021/03/23 03:14:59;;;;;;;2.30;1.67;;;9.50;99.90;;;;;;5089623;28;20633;-80
2021/03/23 03:17:25;;;;;;;1.30;1.10;;;9.50;99.90;;;;;;5089093;28;20263;-79
2021/03/23 03:19:51;;;;;;;1.10;1.00;;;9.50;99.90;;;;;;5084894;28;20272;-79
2021/03/23 03:22:17;;;;;;;1.10;1.00;;;9.50;99.90;;;;;;5071699;28;20350;-79
2021/03/23 03:24:44;;;;;;;1.67;1.25;;;9.50;99.90;;;;;;5073490;28;20210;-79
2021/03/23 03:27:10;;;;;;;2.85;1.25;;;9.50;99.90;;;;;;5078783;28;20568;-79
2021/03/23 03:29:37;;;;;;;1.60;1.40;;;9.50;99.90;;;;;;5090005;28;20305;-79
2021/03/23 03:32:05;;;;;;;2.20;1.50;;;9.50;99.90;;;;;;5076500;28;20222;-80
2021/03/23 03:34:31;;;;;;;1.35;1.20;;;9.50;99.90;;;;;;5070333;28;20225;-80
2021/03/23 03:36:57;;;;;;;1.30;1.00;;;9.40;99.90;;;;;;5071087;28;20233;-80
2021/03/23 03:39:23;;;;;;;3.28;1.20;;;9.50;99.90;;;;;;5071627;28;20218;-80
2021/03/23 03:41:50;;;;;;;2.17;1.52;;;9.50;99.90;;;;;;5071361;28;20206;-80
2021/03/23 03:44:16;;;;;;;1.30;1.20;;;9.50;99.90;;;;;;5083582;28;20688;-80
2021/03/23 03:46:43;;;;;;;2.30;1.20;;;9.50;99.90;;;;;;5073700;28;20563;-79
2021/03/23 03:49:09;;;;;;;2.75;1.63;;;9.50;99.90;;;;;;5080422;28;20213;-80
2021/03/23 03:51:35;;;;;;;1.15;1.05;;;9.50;99.90;;;;;;5082670;28;20213;-80
2021/03/23 03:54:02;;;;;;;1.70;1.30;;;9.50;99.90;;;;;;5089141;28;20599;-80
2021/03/23 03:56:28;;;;;;;2.65;1.45;;;9.50;99.90;;;;;;5076765;28;20312;-80
2021/03/23 03:58:56;;;;;;;1.92;1.45;;;9.50;99.90;;;;;;5071573;28;20429;-80
2021/03/23 04:01:22;;;;;;;1.30;1.20;;;9.50;99.90;;;;;;5077682;28;20232;-80
2021/03/23 04:03:49;;;;;;;1.70;1.40;;;9.40;99.90;;;;;;5070663;28;20190;-80
2021/03/23 04:06:15;;;;;;;1.58;1.40;;;9.40;99.90;;;;;;5075514;28;20342;-79
2021/03/23 04:08:42;;;;;;;2.20;1.77;;;9.40;99.90;;;;;;5074936;28;20608;-80
2021/03/23 04:11:10;;;;;;;1.90;1.70;;;9.40;99.90;;;;;;5079331;28;20209;-80
2021/03/23 04:13:37;;;;;;;1.83;1.45;;;9.40;99.90;;;;;;5076687;28;20214;-80
2021/03/23 04:16:04;;;;;;;1.60;1.27;;;9.40;99.90;;;;;;5071227;28;20265;-80
2021/03/23 04:18:30;;;;;;;2.75;1.90;;;9.40;99.90;;;;;;5078921;28;20225;-79
2021/03/23 04:21:00;;;;;;;2.85;1.80;;;9.50;99.90;;;;;;5070440;28;20228;-80
2021/03/23 04:23:28;;;;;;;2.28;2.05;;;9.40;99.90;;;;;;5081273;28;20225;-80
2021/03/23 04:25:55;;;;;;;2.42;1.90;;;9.40;99.90;;;;;;5090127;28;20221;-79
2021/03/23 04:28:22;;;;;;;2.15;1.80;;;9.40;99.90;;;;;;5071956;28;20217;-80
2021/03/23 04:30:49;;;;;;;2.30;2.10;;;9.40;99.90;;;;;;5072150;28;20518;-80
2021/03/23 04:33:17;;;;;;;2.20;2.00;;;9.40;99.90;;;;;;5076589;28;20218;-80
2021/03/23 04:35:46;;;;;;;3.05;2.35;;;9.40;99.90;;;;;;5070408;28;20214;-79
2021/03/23 04:38:15;;;;;;;3.97;2.10;;;9.40;99.90;;;;;;5084969;28;20228;-79
2021/03/23 04:40:42;;;;;;;2.42;1.52;;;9.40;99.90;;;;;;5081042;28;20267;-80
2021/03/23 04:43:09;;;;;;;2.80;2.40;;;9.40;99.90;;;;;;5076337;28;20233;-80
2021/03/23 04:45:35;;;;;;;2.47;2.00;;;9.40;99.90;;;;;;5073644;28;20209;-79
2021/03/23 04:48:01;;;;;;;2.83;2.55;;;9.40;99.90;;;;;;5080542;28;20213;-79
2021/03/23 04:50:28;;;;;;;2.83;2.42;;;9.40;99.90;;;;;;5088560;28;20225;-80
2021/03/23 04:52:54;;;;;;;2.20;2.00;;;9.40;99.90;;;;;;5086428;28;20560;-80
2021/03/23 04:55:21;;;;;;;4.47;2.45;;;9.40;99.90;;;;;;5088945;28;20189;-80
2021/03/23 04:57:47;;;;;;;2.28;2.08;;;9.40;99.90;;;;;;5077091;28;20592;-79
2021/03/23 05:00:15;;;;;;;3.10;2.80;;;9.40;99.90;;;;;;5073971;28;20276;-79
2021/03/23 05:02:41;;;;;;;2.50;2.30;;;9.40;99.90;;;;;;5079236;28;20190;-79
2021/03/23 05:05:09;;;;;;;2.95;2.63;;;9.40;99.90;;;;;;5079694;28;20194;-78
2021/03/23 05:07:35;;;;;;;2.72;2.13;;;9.40;99.90;;;;;;5074043;28;20680;-79
2021/03/23 05:10:03;;;;;;;4.03;3.55;;;9.40;99.90;;;;;;5073709;28;20209;-78
2021/03/23 05:12:30;;;;;;;3.03;2.65;;;9.40;99.90;;;;;;5074641;28;20589;-78
2021/03/23 05:14:56;;;;;;;4.32;2.95;;;9.40;99.90;;;;;;5077413;28;20195;-78
2021/03/23 05:17:22;;;;;;;3.97;3.10;;;9.40;99.90;;;;;;5075546;28;20251;-80
2021/03/23 05:19:49;;;;;;;2.40;2.20;;;9.40;99.90;;;;;;5083495;28;20263;-79
2021/03/23 05:22:15;;;;;;;5.53;3.33;;;9.40;99.90;;;;;;5085896;28;20241;-79
2021/03/23 05:24:41;;;;;;;4.20;3.20;;;9.40;99.90;;;;;;5093556;28;20213;-79
2021/03/23 05:27:09;;;;;;;3.47;2.97;;;9.40;99.90;;;;;;5077358;28;20222;-79
2021/03/23 05:29:36;;;;;;;3.53;3.15;;;9.40;99.90;;;;;;5086274;28;20283;-79
2021/03/23 05:32:02;;;;;;;3.67;2.60;;;9.40;99.90;;;;;;5089520;28;20220;-79
2021/03/23 05:34:29;;;;;;;3.33;2.95;;;9.30;99.90;;;;;;5093110;28;20263;-79
2021/03/23 05:36:55;;;;;;;4.00;3.20;;;9.30;99.90;;;;;;5076007;28;20699;-79
2021/03/23 05:39:21;;;;;;;5.35;3.75;;;9.30;99.90;;;;;;5074151;28;20214;-79
2021/03/23 05:41:56;;;;;;;3.58;3.28;;;9.30;99.90;;;;;;5081434;28;20252;-79
2021/03/23 05:44:50;;;;;;;5.80;3.55;;;9.30;99.90;;;;;;5083896;28;20663;-79
2021/03/23 05:47:19;;;;;;;5.60;3.55;;;9.30;99.90;;;;;;5074147;28;20640;-79
2021/03/23 05:49:52;;;;;;;4.05;3.67;;;9.30;99.90;;;;;;5092459;28;20214;-79
2021/03/23 05:52:24;;;;;;;4.35;3.80;;;9.30;99.90;;;;;;5073891;28;20194;-80
2021/03/23 05:55:00;;;;;;;5.43;4.55;;;9.30;99.90;;;;;;5086042;28;20178;-80
2021/03/23 05:57:30;;;;;;;3.92;3.53;;;9.30;99.90;;;;;;5078593;28;20218;-80
2021/03/23 05:59:59;;;;;;;4.38;4.00;;;9.30;99.90;;;;;;5082974;28;20226;-79
2021/03/23 06:02:33;;;;;;;4.85;4.35;;;9.30;99.90;;;;;;5089158;28;20193;-80
2021/03/23 06:05:13;;;;;;;5.38;4.60;;;9.40;99.90;;;;;;5089437;28;20302;-78
2021/03/23 06:07:39;;;;;;;6.90;4.78;;;9.30;99.90;;;;;;5078810;28;20577;-80
2021/03/23 06:10:16;;;;;;;5.75;4.53;;;9.30;99.90;;;;;;5073715;28;20213;-78
2021/03/23 06:12:48;;;;;;;4.40;4.00;;;9.30;99.90;;;;;;5073251;28;20443;-80
2021/03/23 06:15:23;;;;;;;6.75;5.65;;;9.30;99.90;;;;;;5081074;28;20206;-81
2021/03/23 06:17:57;;;;;;;6.05;4.60;;;9.30;99.90;;;;;;5089230;28;20225;-80
2021/03/23 06:20:51;;;;;;;7.43;4.75;;;9.30;99.90;;;;;;5084241;28;20210;-80
2021/03/23 06:23:46;;;;;;;7.25;4.97;;;9.30;99.90;;;;;;5072545;28;20644;-80
2021/03/23 06:26:22;;;;;;;5.18;4.07;;;9.30;99.90;;;;;;5088373;28;20224;-80
2021/03/23 06:29:04;;;;;;;5.38;4.85;;;9.30;99.90;;;;;;5082720;28;20186;-80
2021/03/23 06:32:03;;;;;;;7.55;6.10;;;9.30;99.90;;;;;;5079856;28;20327;-80
2021/03/23 06:34:33;;;;;;;6.13;5.28;;;9.30;99.90;;;;;;5068783;28;20217;-80
2021/03/23 06:37:01;;;;;;;6.80;5.13;;;9.30;99.90;;;;;;5085085;28;20346;-80
2021/03/23 06:39:30;;;;;;;6.47;5.25;;;9.30;99.90;;;;;;5089982;28;20699;-80
2021/03/23 06:41:58;;;;;;;8.05;5.85;;;9.30;99.90;;;;;;5082276;28;20204;-80
2021/03/23 06:44:31;;;;;;;6.63;5.00;;;9.30;99.90;;;;;;5075935;28;20210;-80
2021/03/23 06:46:58;;;;;;;6.22;5.35;;;9.30;99.90;;;;;;5072085;28;20243;-80
2021/03/23 06:49:35;;;;;;;7.70;5.30;;;9.40;99.90;;;;;;5072034;28;20198;-80
2021/03/23 06:52:17;;;;;;;8.45;6.70;;;9.30;99.90;;;;;;5072039;28;20557;-80
2021/03/23 06:55:03;;;;;;;6.85;6.13;;;9.30;99.90;;;;;;5072678;28;20214;-81
2021/03/23 06:57:29;;;;;;;8.02;6.10;;;9.40;99.90;;;;;;5078835;28;20621;-80
2021/03/23 06:59:59;;;;;;;7.07;5.45;;;9.40;99.90;;;;;;5078149;28;20198;-80
2021/03/23 07:02:32;;;;;;;7.32;5.80;;;9.40;99.90;;;;;;5078147;28;20195;-80
2021/03/23 07:05:21;;;;;;;7.45;5.68;;;9.30;99.90;;;;;;5088989;28;20216;-80
2021/03/23 07:07:54;;;;;;;9.77;7.93;;;9.30;99.90;;;;;;5074077;28;20218;-80
2021/03/23 07:10:23;;;;;;;11.48;7.43;;;9.30;99.90;;;;;;5071763;28;20253;-80
2021/03/23 07:12:51;;;;;;;8.68;6.53;;;9.30;99.90;;;;;;5073027;28;20198;-80
2021/03/23 07:15:20;;;;;;;7.82;6.82;;;9.30;99.90;;;;;;5079525;28;20217;-80
2021/03/23 07:17:49;;;;;;;8.98;6.43;;;9.30;99.90;;;;;;5090006;28;20303;-79
2021/03/23 07:20:40;;;;;;;11.57;8.40;;;9.30;99.90;;;;;;5078662;28;20666;-79
2021/03/23 07:23:31;;;;;;;10.52;7.53;;;9.30;99.90;;;;;;5076636;28;20237;-79
2021/03/23 07:26:13;;;;;;;9.77;8.27;;;9.30;99.90;;;;;;5075300;28;20214;-79
2021/03/23 07:28:42;;;;;;;10.50;8.15;;;9.30;99.90;;;;;;5086600;28;20213;-80
2021/03/23 07:31:15;;;;;;;9.90;7.03;;;9.30;99.90;;;;;;5088210;28;20313;-80
2021/03/23 07:33:50;;;;;;;11.35;7.57;;;9.30;99.90;;;;;;5086728;28;20221;-80
2021/03/23 07:36:23;;;;;;;7.40;5.80;;;9.20;99.90;;;;;;5071812;28;20217;-80
2021/03/23 07:38:53;;;;;;;7.45;6.25;;;9.20;99.90;;;;;;5085459;28;20221;-80
2021/03/23 07:41:24;;;;;;;9.63;7.95;;;9.20;99.90;;;;;;5080750;28;20251;-80
2021/03/23 07:43:54;;;;;;;11.95;9.10;;;9.20;99.90;;;;;;5090601;28;20190;-80
2021/03/23 07:46:25;;;;;;;11.45;7.47;;;9.20;99.90;;;;;;5079307;28;20210;-80
2021/03/23 07:48:59;;;;;;;14.95;9.40;;;9.20;99.90;;;;;;5082048;28;20201;-77
2021/03/23 07:51:32;;;;;;;8.43;6.78;;;9.30;99.90;;;;;;5089815;28;20265;-83
2021/03/23 07:54:11;;;;;;;8.50;7.60;;;9.30;99.90;;;;;;5085759;28;20696;-76
2021/03/23 07:56:49;;;;;;;13.00;8.00;;;9.30;99.90;;;;;;5080935;28;20216;-76
2021/03/23 07:59:25;;;;;;;8.60;7.70;;;9.30;99.90;;;;;;5074214;28;20235;-76
2021/03/23 08:01:55;;;;;;;8.25;6.90;;;9.30;99.90;;;;;;5071172;28;20222;-76
2021/03/23 08:04:43;;;;;;;7.63;5.90;;;9.20;99.90;;;;;;5071186;28;20218;-76
2021/03/23 08:07:20;;;;;;;8.77;7.05;;;9.20;99.90;;;;;;5083707;28;20221;-76
2021/03/23 08:10:29;;;;;;;9.88;7.32;;;9.20;99.90;;;;;;5076490;28;20300;-77
2021/03/23 08:13:33;;;;;;;7.88;6.65;;;9.20;99.90;;;;;;5081184;28;20876;-76
2021/03/23 08:16:11;;;;;;;10.30;7.82;;;9.20;99.90;;;;;;5022727;28;20196;-76
2021/03/23 08:19:05;;;;;;;6.80;5.75;;;9.20;99.90;;;;;;5068736;28;20240;-76
2021/03/23 08:21:42;;;;;;;9.55;6.50;;;9.30;99.90;;;;;;5079541;28;20226;-76
2021/03/23 08:24:26;;;;;;;7.38;5.75;;;9.30;99.90;;;;;;5076340;28;20217;-76
2021/03/23 08:27:17;;;;;;;9.32;7.50;;;9.30;99.90;;;;;;5071896;28;20279;-76
2021/03/23 08:29:52;;;;;;;12.95;6.65;;;9.40;99.90;;;;;;5072940;28;20178;-76
2021/03/23 08:32:25;;;;;;;7.55;6.43;;;9.50;99.90;;;;;;5081519;28;20209;-75
2021/03/23 08:35:26;;;;;;;10.13;8.40;;;9.60;99.90;;;;;;5089277;28;20270;-76
2021/03/23 08:38:02;;;;;;;8.63;7.60;;;9.70;99.90;;;;;;5070434;28;20218;-76
2021/03/23 08:40:35;;;;;;;14.75;6.80;;;9.80;99.90;;;;;;5069640;28;20186;-76
2021/03/23 08:43:03;;;;;;;11.25;7.65;;;9.90;99.90;;;;;;5070031;28;20252;-76
2021/03/23 08:45:34;;;;;;;8.40;7.05;;;10.00;99.90;;;;;;5069900;28;20263;-76
2021/03/23 08:48:03;;;;;;;9.88;8.30;;;10.10;99.90;;;;;;5070434;28;20191;-76
2021/03/23 08:50:32;;;;;;;11.27;7.68;;;10.20;99.90;;;;;;5070955;28;20198;-76
2021/03/23 08:53:01;;;;;;;9.63;6.85;;;10.30;99.90;;;;;;5081507;28;20244;-76
2021/03/23 08:55:45;;;;;;;9.10;7.30;;;10.30;99.90;;;;;;5069831;28;20214;-76
2021/03/23 08:58:16;;;;;;;9.15;7.22;;;10.40;99.90;;;;;;5089710;28;20221;-76
2021/03/23 09:01:00;;;;;;;9.75;7.32;;;10.40;99.90;;;;;;5080304;28;20221;-76
2021/03/23 09:03:47;;;;;;;12.23;7.55;;;10.40;99.90;;;;;;5078183;28;20213;-76
2021/03/23 09:06:16;;;;;;;10.07;7.35;;;10.40;99.90;;;;;;5076497;28;20249;-77
2021/03/23 09:08:48;;;;;;;9.45;7.45;;;10.40;99.90;;;;;;5070257;28;20240;-76
2021/03/23 09:11:41;;;;;;;12.02;9.02;;;10.40;99.90;;;;;;5077423;28;20221;-75
2021/03/23 09:14:25;;;;;;;11.23;8.57;;;10.40;99.90;;;;;;5074081;28;20199;-76
2021/03/23 09:17:15;;;;;;;12.75;7.72;;;10.40;99.90;;;;;;5084442;28;20225;-75
2021/03/23 09:19:57;;;;;;;10.73;8.55;;;10.40;99.90;;;;;;5076120;28;20267;-77
2021/03/23 09:22:33;;;;;;;12.68;10.20;;;10.40;99.90;;;;;;5069952;28;20271;-77
2021/03/23 09:25:48;;;;;;;14.15;8.32;;;10.40;99.90;;;;;;5082703;28;20196;-77
2021/03/23 09:28:45;;;;;;;11.35;8.95;;;10.50;99.90;;;;;;5081521;28;20640;-77
2021/03/23 09:31:15;;;;;;;11.90;8.60;;;10.60;99.90;;;;;;5083037;28;20297;-77
2021/03/23 09:33:43;;;;;;;10.10;7.40;;;10.60;99.90;;;;;;5074162;28;20214;-77
2021/03/23 09:36:44;;;;;;;11.52;8.43;;;10.70;99.90;;;;;;5088171;28;20206;-78
2021/03/23 09:39:47;;;;;;;12.88;9.90;;;10.80;99.90;;;;;;5089169;28;20254;-77
2021/03/23 09:42:23;;;;;;;9.45;8.45;;;10.80;99.90;;;;;;5073445;28;20304;-77
2021/03/23 09:45:16;;;;;;;12.45;7.93;;;10.80;99.90;;;;;;5074913;28;20249;-77
2021/03/23 09:48:01;;;;;;;14.50;9.70;;;10.80;99.90;;;;;;5070300;28;20201;-78
2021/03/23 09:50:34;;;;;;;12.63;8.57;;;10.80;99.90;;;;;;5092590;28;20244;-78
2021/03/23 09:53:03;;;;;;;13.32;8.85;;;10.80;99.90;;;;;;5072926;28;20255;-78
2021/03/23 09:55:30;;;;;;;11.63;8.38;;;10.80;99.90;;;;;;5072629;28;20240;-78
2021/03/23 09:57:57;;;;;;;10.90;8.23;;;10.90;99.90;;;;;;5072847;28;20221;-78
2021/03/23 10:00:28;;;;;;;11.95;8.95;;;10.90;99.90;;;;;;5071735;28;20264;-78
2021/03/23 10:02:54;;;;;;;12.95;9.43;;;10.90;99.90;;;;;;5073816;28;20331;-77
2021/03/23 10:05:22;;;;;;;14.98;9.32;;;10.90;99.90;;;;;;5078555;28;20213;-78
2021/03/23 10:07:51;;;;;;;9.88;8.50;;;10.90;99.90;;;;;;5092928;28;20193;-78
2021/03/23 10:10:25;;;;;;;13.65;9.80;;;10.90;99.90;;;;;;5082626;28;20234;-77
2021/03/23 10:12:52;;;;;;;16.88;10.13;;;10.90;99.90;;;;;;5082385;28;20191;-77
2021/03/23 10:15:31;;;;;;;11.98;10.02;;;10.90;99.90;;;;;;5078544;28;20202;-77
2021/03/23 10:18:18;;;;;;;17.23;10.95;;;10.80;99.90;;;;;;5074722;28;20226;-77
2021/03/23 10:20:45;;;;;;;13.30;9.43;;;10.90;99.90;;;;;;5082432;28;20221;-77
2021/03/23 10:23:12;;;;;;;16.98;10.55;;;10.90;99.90;;;;;;5072746;28;20222;-77
2021/03/23 10:25:41;;;;;;;21.02;11.48;;;10.90;99.90;;;;;;5078211;28;20226;-77
2021/03/23 10:28:08;;;;;;;15.82;11.80;;;10.90;99.90;;;;;;5089360;28;20214;-76
2021/03/23 10:30:37;;;;;;;12.07;9.77;;;11.00;99.90;;;;;;5086973;28;20197;-78
2021/03/23 10:33:18;;;;;;;16.42;11.77;;;11.00;99.90;;;;;;5087342;28;20209;-77
2021/03/23 10:35:57;;;;;;;13.60;11.23;;;11.00;99.90;;;;;;5076714;28;20193;-77
2021/03/23 10:38:37;;;;;;;19.38;11.48;;;11.00;99.90;;;;;;5072546;28;20210;-77
2021/03/23 10:41:27;;;;;;;16.23;12.38;;;11.00;99.90;;;;;;5081406;28;20210;-78
2021/03/23 10:44:10;;;;;;;16.98;11.63;;;11.10;99.90;;;;;;5092822;28;20541;-78
2021/03/23 10:46:41;;;;;;;18.15;12.48;;;11.10;99.90;;;;;;5077630;28;20186;-76
2021/03/23 10:49:22;;;;;;;14.68;10.85;;;11.10;99.90;;;;;;5089168;28;20614;-76
2021/03/23 10:51:50;;;;;;;16.90;12.35;;;11.10;99.90;;;;;;5082258;28;20263;-77
2021/03/23 10:54:20;;;;;;;17.35;11.82;;;11.20;99.90;;;;;;5092144;28;20193;-76
2021/03/23 10:56:49;;;;;;;13.93;11.48;;;11.20;99.90;;;;;;5073805;28;20209;-77
2021/03/23 10:59:26;;;;;;;15.70;11.80;;;11.20;99.90;;;;;;5088895;28;20311;-76
2021/03/23 11:01:58;;;;;;;19.52;12.35;;;11.20;99.90;;;;;;5083299;28;20218;-77
2021/03/23 11:04:25;;;;;;;19.55;13.55;;;11.20;99.90;;;;;;5081165;28;20217;-76
2021/03/23 11:06:52;;;;;;;16.05;10.98;;;11.20;99.90;;;;;;5072475;28;20198;-76
2021/03/23 11:09:20;;;;;;;18.60;11.73;;;11.20;99.90;;;;;;5088497;28;20220;-76
2021/03/23 11:11:49;;;;;;;16.48;12.90;;;11.30;99.90;;;;;;5081683;28;20186;-77
2021/03/23 11:14:15;;;;;;;17.25;12.02;;;11.30;99.90;;;;;;5092149;28;20309;-77
2021/03/23 11:16:44;;;;;;;16.85;12.57;;;11.30;99.90;;;;;;5092249;28;20267;-77
2021/03/23 11:19:22;;;;;;;17.55;13.55;;;11.30;99.90;;;;;;5080451;28;20221;-77
2021/03/23 11:21:48;;;;;;;14.07;10.88;;;11.30;99.90;;;;;;5085836;28;20735;-77
2021/03/23 11:24:14;;;;;;;22.25;15.10;;;11.40;99.90;;;;;;5071633;28;20241;-77
2021/03/23 11:26:44;;;;;;;17.55;11.13;;;11.40;99.90;;;;;;5076354;28;20214;-77
2021/03/23 11:29:13;;;;;;;18.98;13.40;;;11.40;99.90;;;;;;5091716;28;20668;-76
2021/03/23 11:31:41;;;;;;;15.65;11.00;;;11.40;99.90;;;;;;5079722;28;20214;-76
2021/03/23 11:34:07;;;;;;;15.80;12.45;;;11.40;99.90;;;;;;5078515;28;20197;-77
2021/03/23 11:36:34;;;;;;;17.25;11.85;;;11.50;99.90;;;;;;5077935;28;20651;-76
2021/03/23 11:39:02;;;;;;;16.58;10.30;;;11.50;99.90;;;;;;5087490;28;20232;-76
2021/03/23 11:41:35;;;;;;;15.40;12.85;;;11.50;99.90;;;;;;5076411;28;20260;-77
2021/03/23 11:44:03;;;;;;;17.25;13.07;;;11.50;99.90;;;;;;5085071;28;20277;-77
2021/03/23 11:46:38;;;;;;;13.32;11.93;;;11.60;99.90;;;;;;5086201;28;20194;-79
2021/03/23 11:49:09;;;;;;;18.05;13.45;;;11.60;99.90;;;;;;5087331;28;20201;-79
2021/03/23 11:51:37;;;;;;;16.60;12.25;;;11.60;99.90;;;;;;5086613;28;20241;-77
2021/03/23 11:54:04;;;;;;;17.58;13.02;;;11.60;99.90;;;;;;5082774;28;20216;-76
2021/03/23 11:56:31;;;;;;;19.60;13.88;;;11.70;99.90;;;;;;5077252;28;20628;-76
2021/03/23 11:58:58;;;;;;;14.88;11.70;;;11.70;99.90;;;;;;5078937;28;20228;-79
2021/03/23 12:01:25;;;;;;;16.30;12.30;;;11.70;99.90;;;;;;5079237;28;20214;-78
2021/03/23 12:03:51;;;;;;;13.75;11.20;;;11.70;99.90;;;;;;5079260;28;20209;-77
2021/03/23 12:06:28;;;;;;;16.70;13.18;;;11.70;99.90;;;;;;5086460;28;20220;-78
2021/03/23 12:09:00;;;;;;;17.67;13.32;;;11.70;99.90;;;;;;5084760;28;20217;-78
2021/03/23 12:11:33;;;;;;;17.65;12.43;;;11.70;99.90;;;;;;5081184;28;20186;-78
2021/03/23 12:14:11;;;;;;;15.65;10.50;;;11.80;99.90;;;;;;5084604;28;20247;-78
2021/03/23 12:16:43;;;;;;;14.05;11.38;;;11.80;99.90;;;;;;5091290;28;20209;-77
2021/03/23 12:19:13;;;;;;;16.98;13.18;;;11.80;99.90;;;;;;5086453;28;20715;-77
2021/03/23 12:21:40;;;;;;;19.10;14.50;;;11.80;99.90;;;;;;5081087;28;20249;-78
2021/03/23 12:24:09;;;;;;;15.15;12.55;;;11.90;99.90;;;;;;5081724;28;20178;-78
2021/03/23 12:26:36;;;;;;;15.63;12.55;;;11.80;99.90;;;;;;5070695;28;20217;-78
2021/03/23 12:29:02;;;;;;;17.70;14.50;;;11.90;99.90;;;;;;5078309;28;20353;-78
2021/03/23 12:31:28;;;;;;;19.83;14.13;;;11.90;99.90;;;;;;5074840;28;20640;-78
2021/03/23 12:33:55;;;;;;;17.20;13.68;;;11.90;99.90;;;;;;5077716;28;20553;-78
2021/03/23 12:36:21;;;;;;;15.85;12.73;;;11.90;99.90;;;;;;5090603;28;20204;-79
2021/03/23 12:38:50;;;;;;;18.98;15.77;;;11.90;99.90;;;;;;5088533;28;20247;-77
2021/03/23 12:41:20;;;;;;;25.42;14.38;;;11.90;99.90;;;;;;5081379;28;20258;-76
2021/03/23 12:43:49;;;;;;;21.17;15.02;;;11.90;99.90;;;;;;5076481;28;20190;-76
2021/03/23 12:46:15;;;;;;;17.23;15.20;;;12.00;99.90;;;;;;5090455;28;20263;-76
2021/03/23 12:48:42;;;;;;;18.33;14.15;;;12.00;99.90;;;;;;5086876;28;20418;-76
2021/03/23 12:51:13;;;;;;;17.17;13.10;;;12.00;99.90;;;;;;5072452;28;20219;-77
2021/03/23 12:53:39;;;;;;;17.35;13.95;;;12.00;99.90;;;;;;5070599;28;20174;-76
2021/03/23 12:56:05;;;;;;;14.07;12.25;;;12.10;99.90;;;;;;5071030;28;20601;-76
2021/03/23 12:58:33;;;;;;;14.32;12.93;;;12.10;99.90;;;;;;5072555;28;20229;-75
2021/03/23 13:01:00;;;;;;;15.25;12.73;;;12.10;99.90;;;;;;5089651;28;20236;-76
2021/03/23 13:03:26;;;;;;;17.42;12.95;;;12.20;99.90;;;;;;5087905;28;20217;-76
2021/03/23 13:05:55;;;;;;;15.10;13.45;;;12.20;99.90;;;;;;5090379;28;20231;-76
2021/03/23 13:08:28;;;;;;;13.88;12.48;;;12.20;99.90;;;;;;5076369;28;20210;-76
2021/03/23 13:10:59;;;;;;;18.40;13.20;;;12.20;99.90;;;;;;5076114;28;20186;-76
2021/03/23 13:13:28;;;;;;;14.32;12.95;;;12.20;99.90;;;;;;5074798;28;20245;-76
2021/03/23 13:15:56;;;;;;;16.15;13.00;;;12.20;99.90;;;;;;5074333;28;20214;-75
2021/03/23 13:18:25;;;;;;;14.90;12.10;;;12.30;99.90;;;;;;5075257;28;20249;-76
2021/03/23 13:20:53;;;;;;;15.25;13.30;;;12.30;99.90;;;;;;5074245;28;20222;-75
2021/03/23 13:23:24;;;;;;;19.33;12.90;;;12.30;99.90;;;;;;5072553;28;20226;-75
2021/03/23 13:25:56;;;;;;;17.52;14.20;;;12.30;99.90;;;;;;5090234;28;20220;-77